KAPC/APC METAR and TAF weather

Enter ICAO airport designator
Station Type Date Time Source
KAPC METAR 2021/03/05 12:54 UTC NOAA

KAPC 051254Z AUTO 32003KT 10SM CLR 04/02 A3024 RMK AO2 SLP232 T00390022


Station Type Date Time Source
KAPC Decoded METAR 2021/03/05 12:54 UTC NOAA

NAPA COUNTY AIRPORT, CA, United States (KAPC) 38-12N 122-17W 13M
Mar 05, 2021 - 07:54 AM EST / 2021.03.05 1254 UTC
Wind: from the NW (320 degrees) at 3 MPH (3 KT):0
Visibility: 10 mile(s):0
Sky conditions: clear
Temperature: 39.0 F (3.9 C)
Dew Point: 36.0 F (2.2 C)
Relative Humidity: 88%
Pressure (altimeter): 30.24 in. Hg (1024 hPa)
ob: KAPC 051254Z AUTO 32003KT 10SM CLR 04/02 A3024 RMK AO2 SLP232 T00390022
cycle: 13

Station Type Date Time Source
KAPC TAF 2021/03/05 12:39 UTC NOAA

TAF KAPC 051136Z 0512/0612 VRB04KT P6SM SKC
FM051800 17009KT P6SM BKN040
FM052200 19012KT P6SM BKN040
FM060500 20012G20KT 6SM -RA BR BKN025
FM061000 22010KT 6SM BR BKN015

Example: see airport list